sensor_id;sensor_type;location;lat;lon;timestamp;P1;durP1;ratioP1;P2;durP2;ratioP2
44696;SDS011;57264;47.480;19.354;2023-03-14T00:00:46;12.77;;;7.37;;
44696;SDS011;57264;47.480;19.354;2023-03-14T00:03:11;11.07;;;6.60;;
44696;SDS011;57264;47.480;19.354;2023-03-14T00:05:37;12.07;;;6.97;;
44696;SDS011;57264;47.480;19.354;2023-03-14T00:08:02;13.53;;;6.90;;
44696;SDS011;57264;47.480;19.354;2023-03-14T00:10:28;11.63;;;7.17;;
44696;SDS011;57264;47.480;19.354;2023-03-14T00:12:54;14.10;;;7.63;;
44696;SDS011;57264;47.480;19.354;2023-03-14T00:15:19;10.97;;;6.10;;
44696;SDS011;57264;47.480;19.354;2023-03-14T00:17:45;11.97;;;7.20;;
44696;SDS011;57264;47.480;19.354;2023-03-14T00:20:10;9.93;;;6.30;;
44696;SDS011;57264;47.480;19.354;2023-03-14T00:22:39;12.27;;;6.53;;
44696;SDS011;57264;47.480;19.354;2023-03-14T00:25:06;13.43;;;7.50;;
44696;SDS011;57264;47.480;19.354;2023-03-14T00:27:33;11.40;;;6.90;;
44696;SDS011;57264;47.480;19.354;2023-03-14T00:29:58;10.40;;;6.80;;
44696;SDS011;57264;47.480;19.354;2023-03-14T00:32:24;10.90;;;6.50;;
44696;SDS011;57264;47.480;19.354;2023-03-14T00:34:50;15.20;;;6.87;;
44696;SDS011;57264;47.480;19.354;2023-03-14T00:37:16;10.23;;;7.00;;
44696;SDS011;57264;47.480;19.354;2023-03-14T00:39:41;14.50;;;7.23;;
44696;SDS011;57264;47.480;19.354;2023-03-14T00:42:07;11.30;;;6.23;;
44696;SDS011;57264;47.480;19.354;2023-03-14T00:44:32;10.33;;;6.63;;
44696;SDS011;57264;47.480;19.354;2023-03-14T00:46:58;10.60;;;6.93;;
44696;SDS011;57264;47.480;19.354;2023-03-14T00:49:24;11.10;;;6.53;;
44696;SDS011;57264;47.480;19.354;2023-03-14T00:51:49;11.10;;;6.90;;
44696;SDS011;57264;47.480;19.354;2023-03-14T00:54:16;12.57;;;7.38;;
44696;SDS011;57264;47.480;19.354;2023-03-14T00:56:42;13.35;;;7.32;;
44696;SDS011;57264;47.480;19.354;2023-03-14T00:59:08;12.90;;;7.23;;
44696;SDS011;57264;47.480;19.354;2023-03-14T01:04:39;13.13;;;8.27;;
44696;SDS011;57264;47.480;19.354;2023-03-14T01:07:04;16.13;;;8.60;;
44696;SDS011;57264;47.480;19.354;2023-03-14T01:09:30;16.57;;;8.73;;
44696;SDS011;57264;47.480;19.354;2023-03-14T01:11:55;13.00;;;8.77;;
44696;SDS011;57264;47.480;19.354;2023-03-14T01:14:21;12.53;;;7.87;;
44696;SDS011;57264;47.480;19.354;2023-03-14T01:16:46;14.10;;;7.60;;
44696;SDS011;57264;47.480;19.354;2023-03-14T01:19:12;9.73;;;6.77;;
44696;SDS011;57264;47.480;19.354;2023-03-14T01:21:38;11.03;;;7.13;;
44696;SDS011;57264;47.480;19.354;2023-03-14T01:24:04;11.27;;;7.20;;
44696;SDS011;57264;47.480;19.354;2023-03-14T01:26:31;12.93;;;8.20;;
44696;SDS011;57264;47.480;19.354;2023-03-14T01:28:58;10.40;;;7.05;;
44696;SDS011;57264;47.480;19.354;2023-03-14T01:31:24;12.05;;;7.45;;
44696;SDS011;57264;47.480;19.354;2023-03-14T01:33:52;13.25;;;7.25;;
44696;SDS011;57264;47.480;19.354;2023-03-14T01:36:18;10.05;;;7.15;;
44696;SDS011;57264;47.480;19.354;2023-03-14T01:38:43;11.03;;;7.13;;
44696;SDS011;57264;47.480;19.354;2023-03-14T01:41:12;14.77;;;6.90;;
44696;SDS011;57264;47.480;19.354;2023-03-14T01:43:40;10.43;;;6.63;;
44696;SDS011;57264;47.480;19.354;2023-03-14T01:48:32;12.40;;;6.47;;
44696;SDS011;57264;47.480;19.354;2023-03-14T01:53:30;11.13;;;6.85;;
44696;SDS011;57264;47.480;19.354;2023-03-14T01:55:56;10.93;;;6.37;;
44696;SDS011;57264;47.480;19.354;2023-03-14T01:58:23;11.75;;;6.80;;
44696;SDS011;57264;47.480;19.354;2023-03-14T02:00:52;12.90;;;6.82;;
44696;SDS011;57264;47.480;19.354;2023-03-14T02:03:19;12.25;;;6.82;;
44696;SDS011;57264;47.480;19.354;2023-03-14T02:05:48;11.48;;;7.10;;
44696;SDS011;57264;47.480;19.354;2023-03-14T02:08:16;8.43;;;6.25;;
44696;SDS011;57264;47.480;19.354;2023-03-14T02:10:45;11.43;;;6.88;;
44696;SDS011;57264;47.480;19.354;2023-03-14T02:13:14;13.40;;;6.70;;
44696;SDS011;57264;47.480;19.354;2023-03-14T02:15:41;10.73;;;7.05;;
44696;SDS011;57264;47.480;19.354;2023-03-14T02:18:07;10.47;;;6.40;;
44696;SDS011;57264;47.480;19.354;2023-03-14T02:23:24;11.05;;;6.63;;
44696;SDS011;57264;47.480;19.354;2023-03-14T02:25:58;11.07;;;6.50;;
44696;SDS011;57264;47.480;19.354;2023-03-14T02:28:29;11.60;;;7.63;;
44696;SDS011;57264;47.480;19.354;2023-03-14T02:30:55;11.93;;;6.47;;
44696;SDS011;57264;47.480;19.354;2023-03-14T02:33:20;10.57;;;6.47;;
44696;SDS011;57264;47.480;19.354;2023-03-14T02:35:49;9.88;;;7.03;;
44696;SDS011;57264;47.480;19.354;2023-03-14T02:41:12;11.50;;;6.65;;
44696;SDS011;57264;47.480;19.354;2023-03-14T02:43:37;11.87;;;6.73;;
44696;SDS011;57264;47.480;19.354;2023-03-14T02:46:03;9.27;;;5.67;;
44696;SDS011;57264;47.480;19.354;2023-03-14T02:48:35;14.13;;;7.10;;
44696;SDS011;57264;47.480;19.354;2023-03-14T02:51:02;9.70;;;6.03;;
44696;SDS011;57264;47.480;19.354;2023-03-14T02:53:29;12.77;;;6.20;;
44696;SDS011;57264;47.480;19.354;2023-03-14T02:55:56;9.75;;;5.90;;
44696;SDS011;57264;47.480;19.354;2023-03-14T02:58:22;11.47;;;6.20;;
44696;SDS011;57264;47.480;19.354;2023-03-14T03:00:48;9.97;;;6.53;;
44696;SDS011;57264;47.480;19.354;2023-03-14T03:03:14;11.47;;;6.30;;
44696;SDS011;57264;47.480;19.354;2023-03-14T03:05:39;10.37;;;6.13;;
44696;SDS011;57264;47.480;19.354;2023-03-14T03:08:05;8.87;;;5.87;;
44696;SDS011;57264;47.480;19.354;2023-03-14T03:10:31;11.80;;;6.63;;
44696;SDS011;57264;47.480;19.354;2023-03-14T03:12:57;13.10;;;6.40;;
44696;SDS011;57264;47.480;19.354;2023-03-14T03:15:23;11.17;;;5.90;;
44696;SDS011;57264;47.480;19.354;2023-03-14T03:17:49;9.15;;;6.30;;
44696;SDS011;57264;47.480;19.354;2023-03-14T03:20:14;9.87;;;6.03;;
44696;SDS011;57264;47.480;19.354;2023-03-14T03:22:40;12.03;;;6.87;;
44696;SDS011;57264;47.480;19.354;2023-03-14T03:25:06;12.23;;;5.73;;
44696;SDS011;57264;47.480;19.354;2023-03-14T03:27:33;11.18;;;6.28;;
44696;SDS011;57264;47.480;19.354;2023-03-14T03:30:01;10.45;;;6.38;;
44696;SDS011;57264;47.480;19.354;2023-03-14T03:32:29;21.25;;;6.10;;
44696;SDS011;57264;47.480;19.354;2023-03-14T03:34:55;12.27;;;5.90;;
44696;SDS011;57264;47.480;19.354;2023-03-14T03:37:20;12.77;;;5.83;;
44696;SDS011;57264;47.480;19.354;2023-03-14T03:39:46;13.03;;;6.90;;
44696;SDS011;57264;47.480;19.354;2023-03-14T03:42:11;9.97;;;6.07;;
44696;SDS011;57264;47.480;19.354;2023-03-14T03:44:37;8.40;;;5.60;;
44696;SDS011;57264;47.480;19.354;2023-03-14T03:47:02;9.43;;;5.83;;
44696;SDS011;57264;47.480;19.354;2023-03-14T03:49:31;15.33;;;6.77;;
44696;SDS011;57264;47.480;19.354;2023-03-14T03:51:57;10.38;;;6.20;;
44696;SDS011;57264;47.480;19.354;2023-03-14T03:54:24;11.45;;;6.68;;
44696;SDS011;57264;47.480;19.354;2023-03-14T03:56:50;11.43;;;6.05;;
44696;SDS011;57264;47.480;19.354;2023-03-14T03:59:16;10.70;;;5.77;;
44696;SDS011;57264;47.480;19.354;2023-03-14T04:01:42;9.37;;;6.00;;
44696;SDS011;57264;47.480;19.354;2023-03-14T04:04:07;8.40;;;5.37;;
44696;SDS011;57264;47.480;19.354;2023-03-14T04:06:33;9.93;;;6.13;;
44696;SDS011;57264;47.480;19.354;2023-03-14T04:08:58;11.23;;;5.77;;
44696;SDS011;57264;47.480;19.354;2023-03-14T04:11:24;8.50;;;5.07;;
44696;SDS011;57264;47.480;19.354;2023-03-14T04:13:50;9.80;;;5.30;;
44696;SDS011;57264;47.480;19.354;2023-03-14T04:16:19;9.00;;;5.33;;
44696;SDS011;57264;47.480;19.354;2023-03-14T04:21:12;8.07;;;5.33;;
44696;SDS011;57264;47.480;19.354;2023-03-14T04:23:38;9.87;;;5.60;;
44696;SDS011;57264;47.480;19.354;2023-03-14T04:26:03;11.07;;;6.90;;
44696;SDS011;57264;47.480;19.354;2023-03-14T04:28:29;9.73;;;5.37;;
44696;SDS011;57264;47.480;19.354;2023-03-14T04:30:55;8.87;;;5.40;;
44696;SDS011;57264;47.480;19.354;2023-03-14T04:33:21;9.07;;;6.00;;
44696;SDS011;57264;47.480;19.354;2023-03-14T04:35:46;12.27;;;5.40;;
44696;SDS011;57264;47.480;19.354;2023-03-14T04:38:12;10.10;;;5.47;;
44696;SDS011;57264;47.480;19.354;2023-03-14T04:40:41;7.60;;;5.55;;
44696;SDS011;57264;47.480;19.354;2023-03-14T04:43:08;10.70;;;6.03;;
44696;SDS011;57264;47.480;19.354;2023-03-14T04:45:35;11.13;;;6.05;;
44696;SDS011;57264;47.480;19.354;2023-03-14T04:48:00;8.93;;;6.13;;
44696;SDS011;57264;47.480;19.354;2023-03-14T04:50:26;12.10;;;6.27;;
44696;SDS011;57264;47.480;19.354;2023-03-14T04:52:52;9.80;;;6.23;;
44696;SDS011;57264;47.480;19.354;2023-03-14T04:55:17;7.80;;;5.30;;
44696;SDS011;57264;47.480;19.354;2023-03-14T04:57:43;7.80;;;5.03;;
44696;SDS011;57264;47.480;19.354;2023-03-14T05:00:08;7.47;;;4.47;;
44696;SDS011;57264;47.480;19.354;2023-03-14T05:02:34;16.90;;;5.82;;
44696;SDS011;57264;47.480;19.354;2023-03-14T05:05:00;12.63;;;5.17;;
44696;SDS011;57264;47.480;19.354;2023-03-14T05:07:26;10.07;;;5.50;;
44696;SDS011;57264;47.480;19.354;2023-03-14T05:09:51;10.10;;;5.67;;
44696;SDS011;57264;47.480;19.354;2023-03-14T05:12:19;10.75;;;5.25;;
44696;SDS011;57264;47.480;19.354;2023-03-14T05:14:45;8.98;;;5.72;;
44696;SDS011;57264;47.480;19.354;2023-03-14T05:17:10;10.73;;;5.93;;
44696;SDS011;57264;47.480;19.354;2023-03-14T05:19:39;9.23;;;5.20;;
44696;SDS011;57264;47.480;19.354;2023-03-14T05:22:05;12.90;;;5.97;;
44696;SDS011;57264;47.480;19.354;2023-03-14T05:24:31;10.23;;;5.63;;
44696;SDS011;57264;47.480;19.354;2023-03-14T05:26:56;14.37;;;6.07;;
44696;SDS011;57264;47.480;19.354;2023-03-14T05:29:22;8.90;;;5.33;;
44696;SDS011;57264;47.480;19.354;2023-03-14T05:31:47;11.00;;;6.27;;
44696;SDS011;57264;47.480;19.354;2023-03-14T05:34:13;18.77;;;6.37;;
44696;SDS011;57264;47.480;19.354;2023-03-14T05:36:38;24.37;;;6.67;;
44696;SDS011;57264;47.480;19.354;2023-03-14T05:39:04;13.87;;;6.23;;
44696;SDS011;57264;47.480;19.354;2023-03-14T05:41:30;9.57;;;5.90;;
44696;SDS011;57264;47.480;19.354;2023-03-14T05:43:55;12.53;;;6.23;;
44696;SDS011;57264;47.480;19.354;2023-03-14T05:46:21;12.67;;;6.67;;
44696;SDS011;57264;47.480;19.354;2023-03-14T05:48:46;15.47;;;7.00;;
44696;SDS011;57264;47.480;19.354;2023-03-14T05:51:12;11.30;;;6.50;;
44696;SDS011;57264;47.480;19.354;2023-03-14T05:53:37;10.37;;;6.47;;
44696;SDS011;57264;47.480;19.354;2023-03-14T05:56:03;14.43;;;7.80;;
44696;SDS011;57264;47.480;19.354;2023-03-14T05:58:29;14.33;;;7.03;;
44696;SDS011;57264;47.480;19.354;2023-03-14T06:00:54;11.50;;;7.00;;
44696;SDS011;57264;47.480;19.354;2023-03-14T06:03:20;9.93;;;6.30;;
44696;SDS011;57264;47.480;19.354;2023-03-14T06:05:45;11.07;;;6.50;;
44696;SDS011;57264;47.480;19.354;2023-03-14T06:08:11;9.97;;;6.00;;
44696;SDS011;57264;47.480;19.354;2023-03-14T06:10:37;14.27;;;6.53;;
44696;SDS011;57264;47.480;19.354;2023-03-14T06:13:02;12.83;;;6.57;;
44696;SDS011;57264;47.480;19.354;2023-03-14T06:15:28;13.02;;;7.60;;
44696;SDS011;57264;47.480;19.354;2023-03-14T06:17:55;11.70;;;6.97;;
44696;SDS011;57264;47.480;19.354;2023-03-14T06:20:21;10.43;;;5.75;;
44696;SDS011;57264;47.480;19.354;2023-03-14T06:22:46;11.00;;;5.83;;
44696;SDS011;57264;47.480;19.354;2023-03-14T06:25:12;12.50;;;6.17;;
44696;SDS011;57264;47.480;19.354;2023-03-14T06:27:38;8.63;;;5.77;;
44696;SDS011;57264;47.480;19.354;2023-03-14T06:30:03;11.20;;;5.93;;
44696;SDS011;57264;47.480;19.354;2023-03-14T06:32:29;10.77;;;5.25;;
44696;SDS011;57264;47.480;19.354;2023-03-14T06:34:55;13.53;;;5.47;;
44696;SDS011;57264;47.480;19.354;2023-03-14T06:37:22;18.90;;;6.00;;
44696;SDS011;57264;47.480;19.354;2023-03-14T06:39:47;11.87;;;5.83;;
44696;SDS011;57264;47.480;19.354;2023-03-14T06:42:13;11.17;;;5.67;;
44696;SDS011;57264;47.480;19.354;2023-03-14T06:44:39;11.20;;;5.20;;
44696;SDS011;57264;47.480;19.354;2023-03-14T06:47:04;7.07;;;4.83;;
44696;SDS011;57264;47.480;19.354;2023-03-14T06:49:30;8.43;;;4.53;;
44696;SDS011;57264;47.480;19.354;2023-03-14T06:51:55;10.03;;;5.00;;
44696;SDS011;57264;47.480;19.354;2023-03-14T06:54:21;10.57;;;5.33;;
44696;SDS011;57264;47.480;19.354;2023-03-14T06:56:47;8.60;;;4.70;;
44696;SDS011;57264;47.480;19.354;2023-03-14T06:59:12;6.80;;;4.67;;
44696;SDS011;57264;47.480;19.354;2023-03-14T07:01:38;8.70;;;5.27;;
44696;SDS011;57264;47.480;19.354;2023-03-14T07:04:03;8.53;;;4.60;;
44696;SDS011;57264;47.480;19.354;2023-03-14T07:06:29;7.17;;;4.63;;
44696;SDS011;57264;47.480;19.354;2023-03-14T07:08:55;9.90;;;5.10;;
44696;SDS011;57264;47.480;19.354;2023-03-14T07:11:21;7.40;;;4.82;;
44696;SDS011;57264;47.480;19.354;2023-03-14T07:13:47;10.57;;;4.53;;
44696;SDS011;57264;47.480;19.354;2023-03-14T07:16:12;13.00;;;4.73;;
44696;SDS011;57264;47.480;19.354;2023-03-14T07:18:38;6.37;;;4.20;;
44696;SDS011;57264;47.480;19.354;2023-03-14T07:21:04;5.73;;;3.70;;
44696;SDS011;57264;47.480;19.354;2023-03-14T07:23:34;7.32;;;4.90;;
44696;SDS011;57264;47.480;19.354;2023-03-14T07:26:02;6.93;;;4.30;;
44696;SDS011;57264;47.480;19.354;2023-03-14T07:28:28;8.67;;;4.53;;
44696;SDS011;57264;47.480;19.354;2023-03-14T07:30:59;9.13;;;4.32;;
44696;SDS011;57264;47.480;19.354;2023-03-14T07:33:25;8.05;;;4.13;;
44696;SDS011;57264;47.480;19.354;2023-03-14T07:35:50;6.70;;;4.10;;
44696;SDS011;57264;47.480;19.354;2023-03-14T07:38:16;5.67;;;3.40;;
44696;SDS011;57264;47.480;19.354;2023-03-14T07:40:42;32.03;;;5.43;;
44696;SDS011;57264;47.480;19.354;2023-03-14T07:43:08;6.27;;;3.87;;
44696;SDS011;57264;47.480;19.354;2023-03-14T07:45:34;7.47;;;3.60;;
44696;SDS011;57264;47.480;19.354;2023-03-14T07:47:59;8.77;;;4.30;;
44696;SDS011;57264;47.480;19.354;2023-03-14T07:50:27;6.73;;;3.63;;
44696;SDS011;57264;47.480;19.354;2023-03-14T07:52:56;7.60;;;3.43;;
44696;SDS011;57264;47.480;19.354;2023-03-14T07:55:21;6.43;;;4.03;;
44696;SDS011;57264;47.480;19.354;2023-03-14T07:57:47;5.97;;;3.93;;
44696;SDS011;57264;47.480;19.354;2023-03-14T08:00:12;5.17;;;3.40;;
44696;SDS011;57264;47.480;19.354;2023-03-14T08:02:39;6.43;;;3.60;;
44696;SDS011;57264;47.480;19.354;2023-03-14T08:05:05;6.00;;;3.43;;
44696;SDS011;57264;47.480;19.354;2023-03-14T08:07:32;5.83;;;3.30;;
44696;SDS011;57264;47.480;19.354;2023-03-14T08:09:57;5.70;;;3.50;;
44696;SDS011;57264;47.480;19.354;2023-03-14T08:12:23;7.97;;;3.23;;
44696;SDS011;57264;47.480;19.354;2023-03-14T08:14:48;6.93;;;3.17;;
44696;SDS011;57264;47.480;19.354;2023-03-14T08:17:14;7.37;;;3.10;;
44696;SDS011;57264;47.480;19.354;2023-03-14T08:19:40;11.53;;;4.53;;
44696;SDS011;57264;47.480;19.354;2023-03-14T08:22:06;4.63;;;2.90;;
44696;SDS011;57264;47.480;19.354;2023-03-14T08:24:32;7.03;;;2.30;;
44696;SDS011;57264;47.480;19.354;2023-03-14T08:26:57;3.30;;;2.30;;
44696;SDS011;57264;47.480;19.354;2023-03-14T08:29:23;6.93;;;2.63;;
44696;SDS011;57264;47.480;19.354;2023-03-14T08:31:49;4.30;;;2.30;;
44696;SDS011;57264;47.480;19.354;2023-03-14T08:34:14;5.70;;;2.30;;
44696;SDS011;57264;47.480;19.354;2023-03-14T08:36:40;7.73;;;2.13;;
44696;SDS011;57264;47.480;19.354;2023-03-14T08:39:06;5.60;;;2.27;;
44696;SDS011;57264;47.480;19.354;2023-03-14T08:41:32;12.67;;;2.70;;
44696;SDS011;57264;47.480;19.354;2023-03-14T08:43:58;5.77;;;2.80;;
44696;SDS011;57264;47.480;19.354;2023-03-14T08:46:24;3.77;;;2.43;;
44696;SDS011;57264;47.480;19.354;2023-03-14T08:48:49;5.70;;;2.30;;
44696;SDS011;57264;47.480;19.354;2023-03-14T08:51:15;6.67;;;2.53;;
44696;SDS011;57264;47.480;19.354;2023-03-14T08:53:40;6.13;;;1.93;;
44696;SDS011;57264;47.480;19.354;2023-03-14T08:56:06;4.50;;;2.30;;
44696;SDS011;57264;47.480;19.354;2023-03-14T08:58:34;7.40;;;1.90;;
44696;SDS011;57264;47.480;19.354;2023-03-14T09:01:02;6.77;;;1.80;;
44696;SDS011;57264;47.480;19.354;2023-03-14T09:03:27;5.27;;;2.50;;
44696;SDS011;57264;47.480;19.354;2023-03-14T09:05:53;4.57;;;1.80;;
44696;SDS011;57264;47.480;19.354;2023-03-14T09:08:19;7.10;;;2.27;;
44696;SDS011;57264;47.480;19.354;2023-03-14T09:10:44;4.07;;;2.10;;
44696;SDS011;57264;47.480;19.354;2023-03-14T09:13:10;7.87;;;2.27;;
44696;SDS011;57264;47.480;19.354;2023-03-14T09:15:36;4.20;;;1.83;;
44696;SDS011;57264;47.480;19.354;2023-03-14T09:18:01;4.43;;;2.20;;
44696;SDS011;57264;47.480;19.354;2023-03-14T09:20:27;7.20;;;2.57;;
44696;SDS011;57264;47.480;19.354;2023-03-14T09:22:52;7.10;;;2.53;;
44696;SDS011;57264;47.480;19.354;2023-03-14T09:25:18;7.47;;;2.00;;
44696;SDS011;57264;47.480;19.354;2023-03-14T09:27:43;6.77;;;2.30;;
44696;SDS011;57264;47.480;19.354;2023-03-14T09:30:09;3.37;;;1.73;;
44696;SDS011;57264;47.480;19.354;2023-03-14T09:32:38;9.10;;;2.03;;
44696;SDS011;57264;47.480;19.354;2023-03-14T09:35:04;9.43;;;2.40;;
44696;SDS011;57264;47.480;19.354;2023-03-14T09:37:30;6.93;;;2.23;;
44696;SDS011;57264;47.480;19.354;2023-03-14T09:39:55;8.83;;;2.30;;
44696;SDS011;57264;47.480;19.354;2023-03-14T09:42:25;4.90;;;2.00;;
44696;SDS011;57264;47.480;19.354;2023-03-14T09:45:05;7.97;;;2.10;;
44696;SDS011;57264;47.480;19.354;2023-03-14T09:47:35;6.80;;;2.17;;
44696;SDS011;57264;47.480;19.354;2023-03-14T09:50:01;5.87;;;2.30;;
44696;SDS011;57264;47.480;19.354;2023-03-14T09:52:30;5.20;;;2.10;;
44696;SDS011;57264;47.480;19.354;2023-03-14T09:54:58;6.10;;;1.77;;
44696;SDS011;57264;47.480;19.354;2023-03-14T09:57:27;6.60;;;2.30;;
44696;SDS011;57264;47.480;19.354;2023-03-14T09:59:54;6.17;;;2.10;;
44696;SDS011;57264;47.480;19.354;2023-03-14T10:05:00;5.93;;;2.27;;
44696;SDS011;57264;47.480;19.354;2023-03-14T10:07:30;9.43;;;2.17;;
44696;SDS011;57264;47.480;19.354;2023-03-14T10:09:57;4.03;;;1.77;;
44696;SDS011;57264;47.480;19.354;2023-03-14T10:12:30;5.03;;;1.80;;
44696;SDS011;57264;47.480;19.354;2023-03-14T10:14:58;4.30;;;2.43;;
44696;SDS011;57264;47.480;19.354;2023-03-14T10:17:29;4.70;;;2.08;;
44696;SDS011;57264;47.480;19.354;2023-03-14T10:19:56;3.80;;;1.73;;
44696;SDS011;57264;47.480;19.354;2023-03-14T10:22:28;4.97;;;2.20;;
44696;SDS011;57264;47.480;19.354;2023-03-14T10:24:57;9.17;;;2.37;;
44696;SDS011;57264;47.480;19.354;2023-03-14T10:27:28;6.80;;;2.57;;
44696;SDS011;57264;47.480;19.354;2023-03-14T10:29:56;8.83;;;2.00;;
44696;SDS011;57264;47.480;19.354;2023-03-14T10:32:28;5.20;;;1.80;;
44696;SDS011;57264;47.480;19.354;2023-03-14T10:35:19;9.87;;;2.80;;
44696;SDS011;57264;47.480;19.354;2023-03-14T10:37:57;13.77;;;2.50;;
44696;SDS011;57264;47.480;19.354;2023-03-14T10:40:47;5.23;;;1.87;;
44696;SDS011;57264;47.480;19.354;2023-03-14T10:43:17;6.87;;;2.10;;
44696;SDS011;57264;47.480;19.354;2023-03-14T10:45:56;7.47;;;2.00;;
44696;SDS011;57264;47.480;19.354;2023-03-14T10:48:31;6.07;;;2.03;;
44696;SDS011;57264;47.480;19.354;2023-03-14T10:53:22;33.40;;;3.87;;
44696;SDS011;57264;47.480;19.354;2023-03-14T10:55:49;6.30;;;2.40;;
44696;SDS011;57264;47.480;19.354;2023-03-14T10:58:23;21.23;;;3.27;;
44696;SDS011;57264;47.480;19.354;2023-03-14T11:00:57;8.30;;;2.23;;
44696;SDS011;57264;47.480;19.354;2023-03-14T11:03:34;26.90;;;2.67;;
44696;SDS011;57264;47.480;19.354;2023-03-14T11:06:04;3.27;;;2.10;;
44696;SDS011;57264;47.480;19.354;2023-03-14T11:08:43;4.47;;;2.27;;
44696;SDS011;57264;47.480;19.354;2023-03-14T11:14:12;7.57;;;2.30;;
44696;SDS011;57264;47.480;19.354;2023-03-14T11:16:59;9.93;;;2.90;;
44696;SDS011;57264;47.480;19.354;2023-03-14T11:19:53;30.53;;;3.93;;
44696;SDS011;57264;47.480;19.354;2023-03-14T11:28:18;8.37;;;2.87;;
44696;SDS011;57264;47.480;19.354;2023-03-14T11:33:25;6.80;;;2.40;;
44696;SDS011;57264;47.480;19.354;2023-03-14T11:36:03;5.77;;;2.70;;
44696;SDS011;57264;47.480;19.354;2023-03-14T11:41:13;12.47;;;3.20;;
44696;SDS011;57264;47.480;19.354;2023-03-14T11:43:43;5.40;;;2.40;;
44696;SDS011;57264;47.480;19.354;2023-03-14T11:46:15;5.97;;;2.20;;
44696;SDS011;57264;47.480;19.354;2023-03-14T11:51:52;4.60;;;2.67;;
44696;SDS011;57264;47.480;19.354;2023-03-14T11:54:38;3.93;;;1.77;;
44696;SDS011;57264;47.480;19.354;2023-03-14T11:57:18;13.47;;;1.97;;
44696;SDS011;57264;47.480;19.354;2023-03-14T12:13:48;11.30;;;2.27;;
44696;SDS011;57264;47.480;19.354;2023-03-14T12:18:49;9.63;;;1.23;;
44696;SDS011;57264;47.480;19.354;2023-03-14T12:21:15;10.70;;;1.60;;
44696;SDS011;57264;47.480;19.354;2023-03-14T12:23:42;3.93;;;1.50;;
44696;SDS011;57264;47.480;19.354;2023-03-14T12:26:13;5.13;;;1.30;;
44696;SDS011;57264;47.480;19.354;2023-03-14T12:31:36;21.00;;;1.73;;
44696;SDS011;57264;47.480;19.354;2023-03-14T12:44:46;5.80;;;1.30;;
44696;SDS011;57264;47.480;19.354;2023-03-14T12:49:45;5.27;;;1.33;;
44696;SDS011;57264;47.480;19.354;2023-03-14T12:52:16;7.13;;;1.37;;
44696;SDS011;57264;47.480;19.354;2023-03-14T12:54:53;7.27;;;1.30;;
44696;SDS011;57264;47.480;19.354;2023-03-14T12:59:58;6.33;;;1.70;;
44696;SDS011;57264;47.480;19.354;2023-03-14T13:02:30;25.03;;;2.43;;
44696;SDS011;57264;47.480;19.354;2023-03-14T13:05:13;14.20;;;1.70;;
44696;SDS011;57264;47.480;19.354;2023-03-14T13:13:19;10.63;;;2.00;;
44696;SDS011;57264;47.480;19.354;2023-03-14T13:18:17;2.57;;;1.00;;
44696;SDS011;57264;47.480;19.354;2023-03-14T13:21:07;5.63;;;1.10;;
44696;SDS011;57264;47.480;19.354;2023-03-14T13:23:37;5.20;;;1.40;;
44696;SDS011;57264;47.480;19.354;2023-03-14T13:26:03;6.37;;;1.30;;
44696;SDS011;57264;47.480;19.354;2023-03-14T13:28:36;4.70;;;1.30;;
44696;SDS011;57264;47.480;19.354;2023-03-14T13:31:02;5.60;;;1.20;;
44696;SDS011;57264;47.480;19.354;2023-03-14T13:33:29;74.73;;;5.47;;
44696;SDS011;57264;47.480;19.354;2023-03-14T13:35:56;6.37;;;1.43;;
44696;SDS011;57264;47.480;19.354;2023-03-14T13:38:27;6.70;;;1.40;;
44696;SDS011;57264;47.480;19.354;2023-03-14T13:40:55;3.47;;;1.53;;
44696;SDS011;57264;47.480;19.354;2023-03-14T13:43:27;8.80;;;2.17;;
44696;SDS011;57264;47.480;19.354;2023-03-14T13:48:46;4.80;;;1.90;;
44696;SDS011;57264;47.480;19.354;2023-03-14T13:51:15;6.27;;;2.10;;
44696;SDS011;57264;47.480;19.354;2023-03-14T13:53:46;6.90;;;2.07;;
44696;SDS011;57264;47.480;19.354;2023-03-14T13:56:18;4.27;;;2.10;;
44696;SDS011;57264;47.480;19.354;2023-03-14T13:58:45;7.07;;;2.63;;
44696;SDS011;57264;47.480;19.354;2023-03-14T14:03:38;8.33;;;2.60;;
44696;SDS011;57264;47.480;19.354;2023-03-14T14:06:06;4.80;;;2.50;;
44696;SDS011;57264;47.480;19.354;2023-03-14T14:08:42;5.20;;;2.53;;
44696;SDS011;57264;47.480;19.354;2023-03-14T14:11:08;9.33;;;2.30;;
44696;SDS011;57264;47.480;19.354;2023-03-14T14:13:43;8.97;;;2.20;;
44696;SDS011;57264;47.480;19.354;2023-03-14T14:16:10;3.27;;;1.80;;
44696;SDS011;57264;47.480;19.354;2023-03-14T14:18:35;4.40;;;1.90;;
44696;SDS011;57264;47.480;19.354;2023-03-14T14:21:02;19.57;;;2.43;;
44696;SDS011;57264;47.480;19.354;2023-03-14T14:23:28;3.00;;;1.90;;
44696;SDS011;57264;47.480;19.354;2023-03-14T14:25:56;6.40;;;2.30;;
44696;SDS011;57264;47.480;19.354;2023-03-14T14:33:43;7.50;;;2.40;;
44696;SDS011;57264;47.480;19.354;2023-03-14T14:36:14;5.87;;;2.40;;
44696;SDS011;57264;47.480;19.354;2023-03-14T14:39:04;4.47;;;1.83;;
44696;SDS011;57264;47.480;19.354;2023-03-14T14:41:39;9.03;;;2.30;;
44696;SDS011;57264;47.480;19.354;2023-03-14T14:44:06;4.50;;;2.30;;
44696;SDS011;57264;47.480;19.354;2023-03-14T14:46:33;5.23;;;2.03;;
44696;SDS011;57264;47.480;19.354;2023-03-14T14:49:03;7.70;;;2.70;;
44696;SDS011;57264;47.480;19.354;2023-03-14T14:51:43;11.57;;;2.50;;
44696;SDS011;57264;47.480;19.354;2023-03-14T14:54:17;6.13;;;2.63;;
44696;SDS011;57264;47.480;19.354;2023-03-14T14:56:46;8.00;;;2.60;;
44696;SDS011;57264;47.480;19.354;2023-03-14T14:59:20;6.77;;;2.50;;
44696;SDS011;57264;47.480;19.354;2023-03-14T15:02:01;6.03;;;2.30;;
44696;SDS011;57264;47.480;19.354;2023-03-14T15:04:29;8.03;;;2.60;;
44696;SDS011;57264;47.480;19.354;2023-03-14T15:06:56;7.73;;;2.50;;
44696;SDS011;57264;47.480;19.354;2023-03-14T15:09:22;7.63;;;2.87;;
44696;SDS011;57264;47.480;19.354;2023-03-14T15:11:48;9.07;;;3.40;;
44696;SDS011;57264;47.480;19.354;2023-03-14T15:14:14;10.27;;;3.63;;
44696;SDS011;57264;47.480;19.354;2023-03-14T15:16:39;8.33;;;2.63;;
44696;SDS011;57264;47.480;19.354;2023-03-14T15:19:18;5.63;;;3.03;;
44696;SDS011;57264;47.480;19.354;2023-03-14T15:21:49;6.87;;;3.23;;
44696;SDS011;57264;47.480;19.354;2023-03-14T15:24:16;8.33;;;3.23;;
44696;SDS011;57264;47.480;19.354;2023-03-14T15:26:42;10.07;;;2.77;;
44696;SDS011;57264;47.480;19.354;2023-03-14T15:29:09;8.13;;;3.03;;
44696;SDS011;57264;47.480;19.354;2023-03-14T15:31:37;8.10;;;3.60;;
44696;SDS011;57264;47.480;19.354;2023-03-14T15:34:06;8.27;;;3.47;;
44696;SDS011;57264;47.480;19.354;2023-03-14T15:36:33;10.90;;;3.47;;
44696;SDS011;57264;47.480;19.354;2023-03-14T15:39:00;7.47;;;3.13;;
44696;SDS011;57264;47.480;19.354;2023-03-14T15:41:27;7.40;;;3.77;;
44696;SDS011;57264;47.480;19.354;2023-03-14T15:43:53;8.97;;;3.40;;
44696;SDS011;57264;47.480;19.354;2023-03-14T15:46:19;11.30;;;3.20;;
44696;SDS011;57264;47.480;19.354;2023-03-14T15:48:50;5.60;;;3.50;;
44696;SDS011;57264;47.480;19.354;2023-03-14T15:51:18;15.15;;;4.30;;
44696;SDS011;57264;47.480;19.354;2023-03-14T15:53:44;10.20;;;4.20;;
44696;SDS011;57264;47.480;19.354;2023-03-14T15:56:16;13.73;;;6.07;;
44696;SDS011;57264;47.480;19.354;2023-03-14T15:58:43;17.17;;;9.00;;
44696;SDS011;57264;47.480;19.354;2023-03-14T16:01:12;13.37;;;8.13;;
44696;SDS011;57264;47.480;19.354;2023-03-14T16:03:38;18.13;;;7.43;;